Time;durP1;ratioP1;P1;durP2;ratioP2;P2;SDS_P1;SDS_P2;PMS_P1;PMS_P2;Temp;Humidity;BMP_temperature;BMP_pressure;BME280_temperature;BME280_humidity;BME280_pressure;Samples;Min_cycle;Max_cycle;Signal;HPM_P1;HPM_P2
2022/08/21 00:00:27;;;;;;;5.20;3.00;;;;;;;22.10;67.70;98994.19;4483892;32;32547;-61
2022/08/21 00:03:02;;;;;;;5.15;2.97;;;;;;;22.94;64.39;98990.03;4479194;32;34604;-61
2022/08/21 00:05:32;;;;;;;4.12;2.47;;;;;;;22.10;67.17;98997.75;4473736;32;33960;-61
2022/08/21 00:07:59;;;;;;;4.25;2.55;;;;;;;22.30;67.19;98989.63;4477764;32;32612;-60
2022/08/21 00:10:27;;;;;;;6.75;3.12;;;;;;;22.93;64.85;98991.06;4483297;32;34765;-60
2022/08/21 00:12:55;;;;;;;7.45;2.28;;;;;;;22.71;65.16;98982.28;4481336;32;34512;-60
2022/08/21 00:15:26;;;;;;;5.12;3.00;;;;;;;22.56;66.06;98979.75;4474713;32;34637;-60
2022/08/21 00:17:54;;;;;;;7.97;3.30;;;;;;;23.17;63.75;98973.19;4476902;32;33724;-60
2022/08/21 00:20:23;;;;;;;5.07;2.90;;;;;;;22.65;65.32;98977.66;4482077;32;34174;-60
2022/08/21 00:22:51;;;;;;;5.53;3.37;;;;;;;22.87;64.49;98973.66;4476044;32;33316;-61
2022/08/21 00:25:19;;;;;;;5.30;3.35;;;;;;;22.51;65.34;98979.56;4476934;32;35092;-60
2022/08/21 00:27:53;;;;;;;5.40;2.58;;;;;;;22.33;66.34;98974.75;4481662;32;34077;-60
2022/08/21 00:30:22;;;;;;;8.00;3.78;;;;;;;22.16;67.23;98968.88;4478813;32;33884;-60
2022/08/21 00:32:52;;;;;;;5.70;3.78;;;;;;;21.85;67.88;98967.53;4467528;32;32925;-61
2022/08/21 00:35:24;;;;;;;5.03;3.42;;;;;;;21.54;69.34;98968.09;4480181;32;32575;-60
2022/08/21 00:37:52;;;;;;;6.15;3.83;;;;;;;22.04;67.66;98974.06;4476464;32;33402;-61
2022/08/21 00:40:25;;;;;;;6.12;4.30;;;;;;;21.92;68.01;98983.03;4470239;32;33791;-61
2022/08/21 00:42:52;;;;;;;6.97;4.35;;;;;;;21.59;69.30;98973.75;4469065;32;34327;-61
2022/08/21 00:45:23;;;;;;;5.75;3.75;;;;;;;22.31;66.87;98985.00;4472950;32;33815;-61
2022/08/21 00:47:53;;;;;;;5.50;3.42;;;;;;;22.41;66.36;98974.53;4470241;32;32660;-61
2022/08/21 00:50:23;;;;;;;9.82;3.25;;;;;;;22.76;65.21;98975.16;4482351;32;32294;-60
2022/08/21 00:52:51;;;;;;;5.57;3.70;;;;;;;22.89;64.17;98966.09;4469109;32;33441;-60
2022/08/21 00:55:20;;;;;;;5.82;3.75;;;;;;;22.72;64.68;98965.69;4477592;32;33685;-60
2022/08/21 00:57:52;;;;;;;7.10;4.25;;;;;;;22.57;65.33;98965.09;4465583;32;34224;-61
2022/08/21 01:00:31;;;;;;;4.53;2.92;;;;;;;22.16;67.07;98970.75;4476942;32;35215;-60
2022/08/21 01:03:02;;;;;;;5.50;3.47;;;;;;;22.52;65.81;98964.87;4482555;32;33132;-60
2022/08/21 01:05:35;;;;;;;6.12;3.78;;;;;;;22.90;64.41;98961.47;4471811;32;34855;-60
2022/08/21 01:08:04;;;;;;;8.13;4.55;;;;;;;22.85;64.68;98967.56;4481306;32;32662;-61
2022/08/21 01:10:33;;;;;;;6.65;4.32;;;;;;;22.79;64.59;98965.69;4474160;32;35673;-61
2022/08/21 01:13:01;;;;;;;6.22;4.00;;;;;;;22.73;65.07;98961.09;4474403;32;34838;-61
2022/08/21 01:15:32;;;;;;;6.50;4.03;;;;;;;23.10;64.02;98962.28;4475440;32;34036;-62
2022/08/21 01:18:00;;;;;;;6.03;4.05;;;;;;;23.10;63.83;98962.28;4475314;32;33794;-62
2022/08/21 01:20:27;;;;;;;6.97;4.40;;;;;;;23.20;63.70;98956.37;4473798;32;34853;-62
2022/08/21 01:23:04;;;;;;;7.03;4.40;;;;;;;23.14;63.59;98954.50;4479858;32;33285;-62
2022/08/21 01:25:33;;;;;;;6.30;4.35;;;;;;;22.93;64.16;98953.72;4483419;32;32264;-62
2022/08/21 01:28:06;;;;;;;6.37;4.20;;;;;;;23.48;62.69;98942.41;4472167;32;35141;-63
2022/08/21 01:30:36;;;;;;;8.15;4.85;;;;;;;23.09;63.65;98948.87;4469480;32;34505;-62
2022/08/21 01:33:04;;;;;;;7.35;4.30;;;;;;;23.32;63.09;98951.09;4481782;32;34014;-61
2022/08/21 01:35:33;;;;;;;6.25;3.92;;;;;;;23.48;62.30;98954.16;4482170;32;33791;-61
2022/08/21 01:38:01;;;;;;;7.07;4.22;;;;;;;23.79;61.12;98938.91;4484119;32;35037;-61
2022/08/21 01:40:29;;;;;;;7.45;5.20;;;;;;;23.21;63.34;98942.53;4481103;32;33544;-61
2022/08/21 01:42:57;;;;;;;6.78;4.12;;;;;;;22.99;64.14;98941.97;4481896;32;34576;-61
2022/08/21 01:45:25;;;;;;;6.20;4.30;;;;;;;23.07;63.76;98932.69;4482605;32;34012;-61
2022/08/21 01:47:52;;;;;;;8.60;5.90;;;;;;;22.89;64.31;98940.69;4482889;32;34900;-62
2022/08/21 01:50:21;;;;;;;8.27;4.87;;;;;;;22.51;65.43;98934.06;4483248;32;34379;-61
2022/08/21 01:52:49;;;;;;;8.40;5.10;;;;;;;22.80;64.64;98940.09;4478569;32;32756;-62
2022/08/21 01:55:19;;;;;;;7.70;4.32;;;;;;;22.80;64.49;98934.63;4475939;32;33774;-61
2022/08/21 01:57:48;;;;;;;9.38;5.37;;;;;;;23.16;63.60;98938.75;4479589;32;32772;-60
2022/08/21 02:00:18;;;;;;;7.75;4.97;;;;;;;22.84;64.44;98937.78;4468610;32;34091;-61
2022/08/21 02:02:46;;;;;;;7.85;5.00;;;;;;;23.28;62.86;98942.50;4482780;32;33330;-61
2022/08/21 02:05:15;;;;;;;10.70;6.72;;;;;;;22.82;64.51;98943.44;4480272;32;33537;-61
2022/08/21 02:07:48;;;;;;;10.13;6.62;;;;;;;22.40;66.19;98940.13;4478648;32;35041;-61
2022/08/21 02:10:21;;;;;;;9.17;6.47;;;;;;;21.86;68.15;98932.94;4478535;32;34016;-61
2022/08/21 02:12:49;;;;;;;8.40;3.95;;;;;;;22.27;66.35;98930.06;4483257;32;33065;-60
2022/08/21 02:15:18;;;;;;;9.73;6.43;;;;;;;22.49;66.10;98927.13;4482753;32;33584;-60
2022/08/21 02:17:49;;;;;;;12.40;6.60;;;;;;;22.32;66.72;98927.56;4481143;32;34301;-60
2022/08/21 02:20:24;;;;;;;8.32;5.18;;;;;;;22.08;67.33;98928.97;4483310;32;33966;-60
2022/08/21 02:22:53;;;;;;;11.00;5.18;;;;;;;22.59;65.45;98927.53;4475194;32;33210;-61
2022/08/21 02:25:22;;;;;;;9.32;6.37;;;;;;;22.69;65.15;98932.53;4480619;32;33897;-61
2022/08/21 02:27:50;;;;;;;8.55;5.70;;;;;;;22.35;66.16;98929.03;4480281;32;33829;-61
2022/08/21 02:30:25;;;;;;;9.52;6.28;;;;;;;22.40;65.74;98926.50;4483264;32;33910;-61
2022/08/21 02:32:53;;;;;;;9.67;5.83;;;;;;;21.81;68.18;98933.56;4479682;32;33739;-61
2022/08/21 02:35:21;;;;;;;12.88;6.32;;;;;;;22.70;65.25;98940.53;4473131;32;33866;-62
2022/08/21 02:37:56;;;;;;;11.52;6.53;;;;;;;22.31;66.24;98941.37;4467708;32;33991;-61
2022/08/21 02:40:27;;;;;;;8.02;4.90;;;;;;;21.61;68.96;98944.44;4476445;32;33416;-62
2022/08/21 02:42:55;;;;;;;9.88;6.40;;;;;;;21.95;67.73;98926.25;4476873;32;34672;-63
2022/08/21 02:45:23;;;;;;;9.68;6.05;;;;;;;22.30;66.53;98926.09;4480713;32;34100;-62
2022/08/21 02:47:53;;;;;;;9.18;6.20;;;;;;;22.41;65.81;98920.03;4481954;32;33407;-62
2022/08/21 02:50:25;;;;;;;9.95;6.87;;;;;;;22.11;67.02;98925.00;4481128;32;33382;-62
2022/08/21 02:52:54;;;;;;;11.05;7.03;;;;;;;22.06;66.88;98922.94;4481352;32;35321;-62
2022/08/21 02:55:26;;;;;;;13.13;6.40;;;;;;;22.44;65.46;98921.47;4482353;32;33892;-62
2022/08/21 02:57:55;;;;;;;11.77;7.18;;;;;;;21.67;68.77;98934.59;4482120;32;34952;-62
2022/08/21 03:00:25;;;;;;;9.75;6.30;;;;;;;21.72;68.58;98920.34;4478152;32;33535;-62
2022/08/21 03:02:53;;;;;;;8.77;6.60;;;;;;;21.10;71.13;98927.69;4479071;32;33061;-62
2022/08/21 03:05:21;;;;;;;11.55;6.47;;;;;;;21.40;70.20;98923.63;4480041;32;33635;-62
2022/08/21 03:07:49;;;;;;;8.48;5.20;;;;;;;21.43;70.31;98918.81;4482728;32;33806;-61
2022/08/21 03:10:16;;;;;;;8.90;6.05;;;;;;;22.09;67.53;98925.22;4480159;32;32889;-62
2022/08/21 03:12:44;;;;;;;8.77;5.47;;;;;;;22.10;67.10;98921.44;4475055;31;32195;-62
2022/08/21 03:15:14;;;;;;;14.32;7.45;;;;;;;22.04;67.73;98932.34;4478658;32;33711;-62
2022/08/21 03:17:41;;;;;;;11.18;7.95;;;;;;;21.29;70.59;98918.75;4479174;32;34340;-61
2022/08/21 03:20:10;;;;;;;11.40;6.07;;;;;;;21.25;70.90;98924.78;4477789;31;33920;-62
2022/08/21 03:22:38;;;;;;;10.70;5.70;;;;;;;21.71;68.94;98921.41;4476063;32;33385;-61
2022/08/21 03:25:06;;;;;;;12.13;7.15;;;;;;;21.36;69.95;98925.09;4476047;31;35014;-62
2022/08/21 03:27:37;;;;;;;10.20;7.30;;;;;;;21.26;70.92;98921.88;4479302;32;33983;-61
2022/08/21 03:30:08;;;;;;;9.95;6.70;;;;;;;21.43;69.85;98927.81;4479069;31;36202;-62
2022/08/21 03:32:36;;;;;;;10.13;6.68;;;;;;;21.60;69.22;98931.00;4478881;32;33042;-62
2022/08/21 03:35:04;;;;;;;8.20;5.07;;;;;;;21.53;69.49;98930.16;4479111;31;33834;-62
2022/08/21 03:37:32;;;;;;;11.07;7.68;;;;;;;21.90;68.03;98928.78;4475635;32;34894;-64
2022/08/21 03:39:59;;;;;;;13.27;7.03;;;;;;;21.53;69.76;98939.16;4477980;31;34685;-64
2022/08/21 03:42:27;;;;;;;9.93;6.75;;;;;;;21.14;71.54;98940.66;4474635;32;33874;-64
2022/08/21 03:44:55;;;;;;;11.02;7.12;;;;;;;21.82;68.82;98935.25;4478589;32;33724;-64
2022/08/21 03:47:22;;;;;;;10.90;7.12;;;;;;;21.76;69.03;98948.84;4470591;32;32658;-64
2022/08/21 03:49:50;;;;;;;10.57;7.12;;;;;;;21.83;68.58;98941.56;4467199;32;36034;-64
2022/08/21 03:52:18;;;;;;;12.07;6.35;;;;;;;21.18;70.98;98952.81;4479153;31;34236;-64
2022/08/21 03:54:46;;;;;;;13.62;7.62;;;;;;;21.86;68.20;98944.69;4477611;32;34360;-64
2022/08/21 03:57:13;;;;;;;14.48;6.55;;;;;;;21.95;68.12;98949.94;4477464;31;32902;-64
2022/08/21 03:59:42;;;;;;;9.40;6.35;;;;;;;22.50;66.23;98956.06;4478773;32;30847;-64
2022/08/21 04:02:10;;;;;;;11.65;7.90;;;;;;;22.43;66.06;98947.06;4477765;31;35105;-65
2022/08/21 04:04:38;;;;;;;10.43;6.35;;;;;;;21.54;69.50;98949.03;4469780;32;33744;-64
2022/08/21 04:07:06;;;;;;;11.77;8.13;;;;;;;22.50;66.10;98954.19;4479416;31;34880;-64
2022/08/21 04:09:33;;;;;;;12.20;8.20;;;;;;;22.39;66.32;98951.25;4479786;32;33869;-64
2022/08/21 04:12:02;;;;;;;7.87;4.95;;;;;;;22.03;67.80;98953.31;4474269;32;33500;-64
2022/08/21 04:14:30;;;;;;;10.52;7.97;;;;;;;22.45;66.27;98950.44;4477150;31;34935;-64
2022/08/21 04:16:57;;;;;;;11.70;8.85;;;;;;;21.95;68.13;98956.22;4468501;32;34986;-64
2022/08/21 04:19:25;;;;;;;12.30;8.30;;;;;;;22.21;67.17;98952.72;4472848;31;34983;-64
2022/08/21 04:21:52;;;;;;;11.77;8.65;;;;;;;21.90;67.99;98957.91;4475986;32;34575;-64
2022/08/21 04:24:21;;;;;;;10.57;6.72;;;;;;;22.62;65.63;98959.00;4476184;31;33843;-64
2022/08/21 04:26:49;;;;;;;12.93;7.85;;;;;;;21.83;68.21;98966.06;4479078;32;33933;-64
2022/08/21 04:29:17;;;;;;;11.75;8.80;;;;;;;21.73;68.91;98965.59;4475616;31;33820;-63
2022/08/21 04:31:44;;;;;;;12.37;8.38;;;;;;;22.09;67.47;98957.94;4473114;32;33538;-64
2022/08/21 04:34:13;;;;;;;12.95;9.70;;;;;;;21.71;68.95;98963.09;4476623;32;34972;-63
2022/08/21 04:36:41;;;;;;;11.88;9.05;;;;;;;22.08;67.69;98964.41;4471967;32;35022;-64
2022/08/21 04:39:08;;;;;;;13.80;7.65;;;;;;;21.94;68.09;98970.06;4469395;32;33623;-63
2022/08/21 04:41:37;;;;;;;10.57;7.53;;;;;;;22.30;66.39;98966.97;4481038;31;33350;-64
2022/08/21 04:44:05;;;;;;;10.10;6.18;;;;;;;22.12;66.93;98977.63;4479341;32;33717;-63
2022/08/21 04:46:32;;;;;;;11.80;8.32;;;;;;;22.48;66.08;98975.38;4473182;32;32841;-64
2022/08/21 04:49:00;;;;;;;10.65;7.35;;;;;;;22.12;67.05;98973.03;4479621;32;33527;-63
2022/08/21 04:51:34;;;;;;;11.07;7.62;;;;;;;21.82;68.21;98976.09;4471969;32;32143;-63
2022/08/21 04:54:09;;;;;;;9.25;6.40;;;;;;;21.93;67.69;98979.28;4472650;32;33855;-63
2022/08/21 04:56:41;;;;;;;8.52;5.32;;;;;;;21.95;67.68;98975.28;4479314;31;34060;-63
2022/08/21 04:59:19;;;;;;;12.02;7.60;;;;;;;21.89;67.91;98978.84;4479379;32;32344;-64
2022/08/21 05:01:46;;;;;;;9.88;6.40;;;;;;;21.77;68.44;98975.06;4472772;32;32889;-64
2022/08/21 05:04:16;;;;;;;10.52;6.25;;;;;;;21.67;68.03;98983.62;4478089;32;32656;-64
2022/08/21 05:06:46;;;;;;;8.32;4.90;;;;;;;21.46;69.50;98981.03;4479422;32;32605;-64
2022/08/21 05:09:16;;;;;;;8.75;5.40;;;;;;;22.18;66.46;98979.53;4479275;31;34527;-63
2022/08/21 05:11:44;;;;;;;9.23;6.03;;;;;;;22.43;65.54;98980.59;4481037;32;33546;-63
2022/08/21 05:14:12;;;;;;;8.27;5.78;;;;;;;21.53;68.49;98988.16;4477255;32;34718;-63
2022/08/21 05:16:41;;;;;;;7.70;4.45;;;;;;;21.74;67.65;98983.66;4475298;32;34323;-63
2022/08/21 05:19:09;;;;;;;7.47;4.45;;;;;;;21.85;67.48;98991.19;4477275;31;33848;-63
2022/08/21 05:21:41;;;;;;;8.95;5.12;;;;;;;21.87;67.30;98992.69;4479685;32;33341;-63
2022/08/21 05:24:09;;;;;;;9.10;5.55;;;;;;;22.43;65.19;98998.84;4479471;31;32529;-63
2022/08/21 05:26:37;;;;;;;6.82;4.68;;;;;;;21.99;66.32;99000.22;4480419;32;33840;-63
2022/08/21 05:29:15;;;;;;;8.32;4.70;;;;;;;22.54;64.50;98995.53;4480665;31;33611;-64
2022/08/21 05:31:43;;;;;;;7.85;4.90;;;;;;;22.49;64.88;98993.41;4480664;32;33391;-64
2022/08/21 05:34:12;;;;;;;6.03;4.40;;;;;;;22.35;64.82;98999.09;4477812;32;32192;-64
2022/08/21 05:36:44;;;;;;;6.40;4.78;;;;;;;21.73;66.80;98999.12;4479796;32;34450;-64
2022/08/21 05:39:11;;;;;;;8.38;4.75;;;;;;;22.08;66.12;99002.56;4478695;32;34590;-62
2022/08/21 05:41:39;;;;;;;7.62;4.97;;;;;;;21.76;67.11;98995.16;4472387;31;31983;-63
2022/08/21 05:44:07;;;;;;;7.68;4.50;;;;;;;22.12;65.95;99002.16;4474634;32;34630;-64
2022/08/21 05:46:38;;;;;;;7.03;4.72;;;;;;;22.33;64.71;98991.09;4479107;31;33020;-63
2022/08/21 05:49:05;;;;;;;7.45;4.37;;;;;;;22.50;64.25;98996.97;4476669;32;34575;-63
2022/08/21 05:51:33;;;;;;;8.35;4.72;;;;;;;22.24;65.07;98984.16;4478519;31;32240;-64
2022/08/21 05:54:00;;;;;;;5.28;3.47;;;;;;;21.73;67.00;98996.41;4477261;32;33789;-63
2022/08/21 05:56:28;;;;;;;6.78;4.50;;;;;;;21.15;68.63;98995.91;4481373;31;34187;-63
2022/08/21 05:58:56;;;;;;;6.57;4.95;;;;;;;21.66;67.13;98991.97;4481158;32;33695;-63
2022/08/21 06:01:24;;;;;;;6.53;4.05;;;;;;;22.01;65.81;98988.09;4479710;31;33174;-63
2022/08/21 06:03:52;;;;;;;7.72;4.45;;;;;;;22.01;65.74;98988.09;4476478;32;34881;-63
2022/08/21 06:06:23;;;;;;;5.62;3.47;;;;;;;22.18;65.50;98982.28;4478602;32;32814;-66
2022/08/21 06:08:52;;;;;;;5.85;3.87;;;;;;;22.73;63.25;98988.37;4478015;31;35300;-64
2022/08/21 06:11:20;;;;;;;6.32;3.12;;;;;;;22.56;63.54;98988.78;4482152;32;34523;-63
2022/08/21 06:13:55;;;;;;;6.70;4.22;;;;;;;22.08;65.86;98993.53;4480402;31;32518;-63
2022/08/21 06:16:23;;;;;;;6.75;4.22;;;;;;;22.28;64.81;98990.91;4478857;32;34991;-64
2022/08/21 06:18:50;;;;;;;5.57;3.78;;;;;;;22.89;62.70;98992.53;4477578;31;33849;-64
2022/08/21 06:21:18;;;;;;;7.28;5.15;;;;;;;22.33;64.29;98993.81;4480679;32;34248;-63
2022/08/21 06:23:46;;;;;;;6.45;4.53;;;;;;;22.16;64.90;98990.66;4480857;31;33898;-63
2022/08/21 06:26:14;;;;;;;8.48;5.18;;;;;;;22.33;64.55;98994.66;4477349;32;33850;-62
2022/08/21 06:28:42;;;;;;;6.87;4.25;;;;;;;22.72;63.45;98992.97;4480359;31;33650;-63
2022/08/21 06:31:12;;;;;;;7.20;3.85;;;;;;;22.63;63.59;99004.31;4477068;32;34558;-63
2022/08/21 06:33:39;;;;;;;6.57;4.53;;;;;;;21.91;65.63;98998.56;4471340;32;33785;-64
2022/08/21 06:36:07;;;;;;;9.50;5.50;;;;;;;22.23;64.71;98998.84;4477568;31;32856;-63
2022/08/21 06:38:36;;;;;;;5.85;4.05;;;;;;;22.36;64.28;98998.84;4480286;32;32063;-63
2022/08/21 06:41:06;;;;;;;7.00;4.12;;;;;;;22.32;64.56;98997.59;4470810;32;33721;-63
2022/08/21 06:43:33;;;;;;;6.30;4.62;;;;;;;22.38;64.40;99002.22;4480999;32;33565;-63
2022/08/21 06:46:07;;;;;;;7.32;4.40;;;;;;;22.54;63.40;99003.69;4478608;31;34003;-64
2022/08/21 06:48:35;;;;;;;7.35;4.87;;;;;;;22.28;64.26;98996.34;4476191;32;33470;-64
2022/08/21 06:51:02;;;;;;;7.32;4.72;;;;;;;22.15;65.25;98997.16;4480585;31;33224;-64
2022/08/21 06:53:30;;;;;;;8.60;5.18;;;;;;;22.38;64.26;99006.84;4477918;32;33724;-64
2022/08/21 06:55:58;;;;;;;7.00;4.70;;;;;;;22.30;64.84;99000.53;4480606;31;32881;-63
2022/08/21 06:58:25;;;;;;;6.90;4.95;;;;;;;22.49;64.23;99003.47;4478656;32;34054;-63
2022/08/21 07:00:53;;;;;;;8.75;5.20;;;;;;;22.28;64.67;99001.81;4471390;32;32537;-64
2022/08/21 07:03:32;;;;;;;6.37;4.60;;;;;;;22.18;65.12;99002.19;4479582;31;33773;-63
2022/08/21 07:06:00;;;;;;;6.93;4.53;;;;;;;22.15;65.76;98997.16;4475781;32;34072;-63
2022/08/21 07:08:28;;;;;;;8.25;5.25;;;;;;;22.07;65.33;99009.06;4472792;32;33313;-63
2022/08/21 07:10:57;;;;;;;7.82;5.00;;;;;;;22.07;65.81;99010.94;4478353;32;33145;-62
2022/08/21 07:13:25;;;;;;;7.53;5.28;;;;;;;22.07;65.85;99009.06;4482526;32;33850;-64
2022/08/21 07:15:53;;;;;;;7.87;5.05;;;;;;;22.17;65.03;99000.50;4481094;32;33817;-64
2022/08/21 07:18:21;;;;;;;10.10;4.75;;;;;;;22.40;64.65;98996.56;4479054;32;32436;-64
2022/08/21 07:20:48;;;;;;;7.50;5.32;;;;;;;22.60;64.04;99002.00;4479792;32;33410;-63
2022/08/21 07:23:32;;;;;;;7.43;4.70;;;;;;;22.20;65.00;99007.44;4483564;32;32646;-63
2022/08/21 07:26:01;;;;;;;8.10;5.62;;;;;;;22.70;63.70;99000.53;4468464;32;33757;-64
2022/08/21 07:28:29;;;;;;;6.32;4.80;;;;;;;22.49;63.88;98998.84;4479997;32;33802;-63
2022/08/21 07:30:58;;;;;;;6.07;3.70;;;;;;;22.79;63.43;98999.28;4478805;32;33080;-63
2022/08/21 07:33:28;;;;;;;7.03;4.82;;;;;;;23.00;63.00;98998.22;4475309;32;206976;-64
2022/08/21 07:35:55;;;;;;;8.73;5.10;;;;;;;23.12;62.39;99005.75;4482896;32;34890;-63
2022/08/21 07:38:23;;;;;;;7.85;5.43;;;;;;;23.25;61.79;98992.91;4479658;32;34082;-63
2022/08/21 07:40:54;;;;;;;7.03;5.37;;;;;;;23.08;62.63;98991.69;4476531;32;33555;-63
2022/08/21 07:43:22;;;;;;;8.68;5.97;;;;;;;23.14;62.54;98990.00;4473088;32;34714;-63
2022/08/21 07:45:49;;;;;;;11.27;5.35;;;;;;;22.78;63.34;98991.28;4483538;32;33940;-63
2022/08/21 07:48:17;;;;;;;8.70;5.90;;;;;;;23.48;61.36;98992.41;4482010;32;34304;-63
2022/08/21 07:50:45;;;;;;;7.80;5.75;;;;;;;23.07;63.22;98986.44;4480533;32;33774;-64
2022/08/21 07:53:12;;;;;;;7.20;4.97;;;;;;;23.35;62.05;98988.88;4468345;32;32278;-64
2022/08/21 07:55:40;;;;;;;8.40;5.68;;;;;;;23.63;61.50;98981.19;4484428;32;34065;-64
2022/08/21 07:58:08;;;;;;;7.62;5.10;;;;;;;23.31;61.83;98983.03;4482908;32;34002;-64
2022/08/21 08:00:35;;;;;;;9.23;4.95;;;;;;;23.59;61.38;98982.66;4472183;32;31619;-63
2022/08/21 08:03:03;;;;;;;8.25;5.57;;;;;;;23.80;60.69;98981.56;4480929;32;32237;-64
2022/08/21 08:05:32;;;;;;;10.00;5.85;;;;;;;23.73;61.28;98978.03;4468846;32;34011;-63
2022/08/21 08:07:59;;;;;;;7.70;5.45;;;;;;;23.90;60.81;98981.91;4475848;32;33904;-63
2022/08/21 08:10:27;;;;;;;8.63;5.53;;;;;;;23.51;62.34;98979.37;4476877;32;33069;-63
2022/08/21 08:12:55;;;;;;;9.18;5.40;;;;;;;23.88;61.06;98984.03;4476301;32;33954;-64
2022/08/21 08:15:25;;;;;;;8.60;5.40;;;;;;;23.80;61.54;98976.09;4476713;32;35261;-63
2022/08/21 08:17:54;;;;;;;8.63;5.28;;;;;;;23.51;62.51;98979.37;4476524;32;34739;-63
2022/08/21 08:20:23;;;;;;;7.10;5.47;;;;;;;24.24;60.12;98977.06;4479191;32;31894;-63
2022/08/21 08:22:51;;;;;;;6.80;5.12;;;;;;;23.76;61.66;98971.28;4483469;32;33700;-63
2022/08/21 08:25:20;;;;;;;10.07;6.10;;;;;;;23.94;60.83;98966.75;4481162;32;33930;-64
2022/08/21 08:27:47;;;;;;;7.55;5.20;;;;;;;24.07;60.39;98970.44;4474867;32;33626;-64
2022/08/21 08:30:17;;;;;;;8.75;5.60;;;;;;;24.41;58.96;98969.19;4468740;32;33167;-63
2022/08/21 08:32:47;;;;;;;9.07;5.93;;;;;;;24.14;59.94;98968.50;4477375;32;34693;-63
2022/08/21 08:35:15;;;;;;;7.03;5.28;;;;;;;23.70;61.12;98964.81;4478139;32;33937;-63
2022/08/21 08:37:45;;;;;;;7.40;5.32;;;;;;;23.97;60.01;98960.00;4476847;32;33569;-63
2022/08/21 08:40:44;;;;;;;7.97;5.10;;;;;;;23.59;61.95;98962.72;4476777;32;33289;-63
2022/08/21 08:43:13;;;;;;;7.93;5.43;;;;;;;24.32;59.81;98967.75;4459666;32;32679;-63
2022/08/21 08:45:46;;;;;;;8.50;5.57;;;;;;;24.34;59.96;98962.91;4466896;32;33647;-64
2022/08/21 08:48:41;;;;;;;6.87;4.93;;;;;;;23.82;61.29;98963.06;4467865;32;32006;-64
2022/08/21 08:51:16;;;;;;;8.88;5.22;;;;;;;24.39;60.71;98963.87;4472678;32;34702;-63
2022/08/21 08:53:50;;;;;;;10.10;5.93;;;;;;;24.36;59.33;98964.31;4464947;32;33751;-63
2022/08/21 08:56:22;;;;;;;8.57;5.70;;;;;;;24.02;60.03;98970.28;4480963;32;33861;-63
2022/08/21 08:58:51;;;;;;;7.50;5.10;;;;;;;24.16;60.95;98969.12;4475905;32;34669;-63
2022/08/21 09:01:20;;;;;;;8.50;6.00;;;;;;;24.14;61.24;98972.09;4474609;32;33190;-63
2022/08/21 09:03:49;;;;;;;10.85;6.18;;;;;;;24.12;60.30;98960.53;4479855;32;32546;-64
2022/08/21 09:06:45;;;;;;;8.35;6.20;;;;;;;24.63;59.43;98973.19;4478215;32;33913;-63
2022/08/21 09:09:22;;;;;;;;;;;;;;;24.34;59.99;98969.22;4480893;32;32355;-63
2022/08/21 09:11:56;;;;;;;10.68;6.93;;;;;;;24.14;59.94;98985.78;4482525;32;31812;-63
2022/08/21 09:14:30;;;;;;;8.90;6.03;;;;;;;24.54;58.77;98980.00;4474992;32;33715;-63
2022/08/21 09:17:32;;;;;;;10.43;6.97;;;;;;;24.57;59.31;98971.34;4466009;32;33969;-63
2022/08/21 09:20:03;;;;;;;7.97;5.82;;;;;;;24.61;58.75;98969.84;4480765;32;33855;-63
2022/08/21 09:22:49;;;;;;;11.40;6.80;;;;;;;25.07;58.17;98963.06;4483063;32;32194;-63
2022/08/21 09:25:24;;;;;;;8.18;6.37;;;;;;;24.52;59.28;98970.34;4480607;32;34615;-64
2022/08/21 09:27:52;;;;;;;12.90;6.32;;;;;;;24.45;59.47;98967.66;4482634;32;32655;-63
2022/08/21 09:30:31;;;;;;;9.05;5.40;;;;;;;24.61;59.71;98961.62;4481061;32;34094;-63
2022/08/21 09:32:59;;;;;;;8.57;6.80;;;;;;;24.64;59.09;98963.09;4481070;32;34693;-63
2022/08/21 09:35:27;;;;;;;11.57;6.50;;;;;;;24.72;58.73;98959.22;4473862;32;33492;-64
2022/08/21 09:38:06;;;;;;;9.82;5.97;;;;;;;24.85;58.80;98961.84;4478394;32;32623;-64
2022/08/21 09:40:43;;;;;;;9.52;6.40;;;;;;;24.82;59.05;98963.13;4480857;32;32661;-63
2022/08/21 09:43:10;;;;;;;8.07;5.55;;;;;;;24.74;58.73;98955.19;4482412;32;34165;-63
2022/08/21 09:45:41;;;;;;;9.57;5.93;;;;;;;25.39;57.53;98956.59;4480316;32;34290;-63
2022/08/21 09:48:21;;;;;;;9.50;6.90;;;;;;;25.89;56.13;98954.47;4477623;32;32849;-64
2022/08/21 09:50:53;;;;;;;9.57;5.75;;;;;;;25.45;56.76;98955.69;4477315;32;32803;-63
2022/08/21 09:53:26;;;;;;;8.05;5.57;;;;;;;25.53;56.35;98949.91;4465272;32;33193;-64
2022/08/21 09:58:51;;;;;;;7.97;6.15;;;;;;;25.36;56.30;98954.31;4480757;32;32940;-64
2022/08/21 10:01:22;;;;;;;10.88;6.12;;;;;;;25.31;56.85;98958.59;4476012;32;32244;-64
2022/08/21 10:04:09;;;;;;;9.07;5.97;;;;;;;25.89;55.26;98959.13;4477177;32;34217;-63
2022/08/21 10:06:37;;;;;;;9.38;6.37;;;;;;;25.52;56.33;98970.13;4477615;32;34791;-64
2022/08/21 10:09:11;;;;;;;9.05;7.15;;;;;;;25.82;55.26;98956.50;4470257;32;33647;-64
2022/08/21 10:11:57;;;;;;;10.77;6.25;;;;;;;26.39;54.41;98953.31;4474034;32;33869;-63
2022/08/21 10:14:44;;;;;;;7.20;5.40;;;;;;;25.86;55.26;98963.16;4476204;32;32887;-61
2022/08/21 10:17:40;;;;;;;9.75;6.75;;;;;;;26.06;55.62;98965.63;4473734;32;33524;-61
2022/08/21 10:20:25;;;;;;;7.50;5.65;;;;;;;25.89;56.29;98954.47;4465698;32;33692;-61
2022/08/21 10:23:24;;;;;;;8.45;5.37;;;;;;;26.31;54.79;98956.37;4472330;32;35378;-61
2022/08/21 10:25:57;;;;;;;10.15;5.93;;;;;;;27.03;53.63;98957.03;4474929;32;34435;-60
2022/08/21 10:28:52;;;;;;;8.82;5.70;;;;;;;26.70;53.12;98963.13;4475836;32;34926;-61
2022/08/21 10:31:29;;;;;;;9.55;5.68;;;;;;;26.91;52.75;98961.69;4480184;32;35941;-61
2022/08/21 10:34:17;;;;;;;8.13;5.85;;;;;;;26.88;51.90;98959.44;4481216;32;32774;-60
2022/08/21 10:37:11;;;;;;;9.10;5.53;;;;;;;26.67;53.09;98961.69;4469945;32;33455;-61
2022/08/21 10:40:03;;;;;;;11.20;7.72;;;;;;;26.81;53.38;98955.97;4479063;32;35240;-61
2022/08/21 10:42:33;;;;;;;8.93;6.28;;;;;;;26.96;52.26;98956.31;4478350;32;33931;-61
2022/08/21 10:45:08;;;;;;;8.98;5.57;;;;;;;26.51;53.05;98956.91;4474545;32;33659;-61
2022/08/21 10:47:41;;;;;;;8.18;5.87;;;;;;;26.79;53.27;98949.87;4466026;32;32920;-61
2022/08/21 10:50:14;;;;;;;9.27;5.80;;;;;;;27.25;52.45;98951.75;4468646;32;34030;-62
2022/08/21 10:53:03;;;;;;;10.50;6.05;;;;;;;26.91;52.94;98947.97;4479975;31;33748;-62
2022/08/21 10:55:35;;;;;;;8.98;5.87;;;;;;;27.39;51.55;98944.09;4476754;32;32494;-61
2022/08/21 10:58:12;;;;;;;10.48;5.35;;;;;;;27.21;51.61;98947.00;4475427;32;33300;-61
2022/08/21 11:00:45;;;;;;;10.68;6.57;;;;;;;27.40;51.88;98951.25;4468371;32;33831;-61
2022/08/21 11:03:17;;;;;;;8.88;6.40;;;;;;;26.98;52.36;98940.44;4480914;32;33337;-62
2022/08/21 11:05:52;;;;;;;8.80;6.35;;;;;;;27.22;51.25;98941.25;4465569;32;32436;-62
2022/08/21 11:08:30;;;;;;;10.40;6.75;;;;;;;27.73;50.22;98931.28;4458578;32;32705;-61
2022/08/21 11:11:09;;;;;;;7.60;4.97;;;;;;;27.41;50.96;98939.16;4462087;32;32451;-62
2022/08/21 11:13:44;;;;;;;10.05;5.53;;;;;;;27.67;49.95;98945.16;4461100;32;32481;-62
2022/08/21 11:16:19;;;;;;;;;;;;;;;27.31;50.85;98937.03;4468397;32;34078;-62
2022/08/21 11:18:52;;;;;;;8.23;5.35;;;;;;;27.14;51.49;98939.72;4469186;32;33458;-64
2022/08/21 11:21:42;;;;;;;10.68;6.40;;;;;;;27.19;51.76;98933.47;4476252;32;35001;-61
2022/08/21 11:24:36;;;;;;;10.13;5.40;;;;;;;26.86;52.35;98936.84;4467613;32;33398;-61
2022/08/21 11:27:21;;;;;;;7.82;5.45;;;;;;;27.30;51.25;98932.63;4480334;32;33822;-62
2022/08/21 11:29:57;;;;;;;8.65;5.55;;;;;;;26.82;52.61;98944.75;4478755;32;33269;-62
2022/08/21 11:32:37;;;;;;;6.62;4.70;;;;;;;26.85;53.23;98943.44;4480810;32;32316;-61
2022/08/21 11:35:15;;;;;;;8.48;5.10;;;;;;;26.41;53.46;98937.41;4480727;32;35275;-62
2022/08/21 11:37:54;;;;;;;9.60;5.28;;;;;;;26.81;52.68;98940.34;4479761;32;32512;-62
2022/08/21 11:41:18;;;;;;;9.00;5.65;;;;;;;26.85;52.50;98941.53;4472948;32;33516;-61
2022/08/21 11:43:55;;;;;;;10.13;5.60;;;;;;;26.75;52.55;98938.53;4425262;32;33630;-61
2022/08/21 11:46:38;;;;;;;8.73;5.97;;;;;;;26.81;52.93;98925.78;4458977;32;32566;-62
2022/08/21 11:49:19;;;;;;;10.27;5.70;;;;;;;26.91;52.64;98929.59;4477002;32;33667;-62
2022/08/21 11:51:55;;;;;;;12.02;6.65;;;;;;;25.90;54.82;98931.47;4475776;31;33270;-61
2022/08/21 11:54:25;;;;;;;9.10;6.32;;;;;;;26.09;54.05;98914.97;4467989;32;33926;-61